createdAt,value
2019-05-13T00:04:14.147Z,1.10
2019-05-13T00:09:16.424Z,1.07
2019-05-13T00:14:18.471Z,1.50
2019-05-13T00:19:20.567Z,0.90
2019-05-13T00:24:24.303Z,1.37
2019-05-13T00:29:28.395Z,1.40
2019-05-13T00:34:30.587Z,1.10
2019-05-13T00:39:33.636Z,1.23
2019-05-13T00:44:35.966Z,1.30
2019-05-13T00:49:38.152Z,1.47
2019-05-13T00:54:40.158Z,1.37
2019-05-13T00:59:44.250Z,1.70
2019-05-13T01:04:46.545Z,0.93
2019-05-13T01:09:48.644Z,0.93
2019-05-13T01:14:50.648Z,1.30
2019-05-13T01:19:53.806Z,1.00
2019-05-13T01:24:56.159Z,0.97
2019-05-13T01:29:58.185Z,1.43
2019-05-13T01:35:00.264Z,0.87
2019-05-13T01:40:05.062Z,1.10
2019-05-13T01:45:07.369Z,1.40
2019-05-13T01:50:09.945Z,0.97
2019-05-13T01:55:14.489Z,1.13
2019-05-13T02:00:18.166Z,0.87
2019-05-13T02:05:20.227Z,0.93
2019-05-13T02:10:40.706Z,1.30
2019-05-13T02:15:45.187Z,0.70
2019-05-13T02:20:47.367Z,1.40
2019-05-13T02:25:49.487Z,1.10
2019-05-13T02:30:51.712Z,0.90
2019-05-13T02:35:54.065Z,1.50
2019-05-13T02:40:56.584Z,0.87
2019-05-13T02:45:59.422Z,1.00
2019-05-13T02:51:03.652Z,1.40
2019-05-13T02:56:06.806Z,1.20
2019-05-13T03:01:12.332Z,1.80
2019-05-13T03:06:13.570Z,1.83
2019-05-13T03:11:17.301Z,1.30
2019-05-13T03:16:36.161Z,1.87
2019-05-13T03:21:38.435Z,1.17
2019-05-13T03:26:42.754Z,1.33
2019-05-13T03:31:46.873Z,1.53
2019-05-13T03:36:48.942Z,1.57
2019-05-13T03:41:53.019Z,1.33
2019-05-13T03:46:58.688Z,1.43
2019-05-13T03:52:03.073Z,1.60
2019-05-13T03:57:05.891Z,1.60
2019-05-13T04:02:08.099Z,1.70
2019-05-13T04:07:12.941Z,1.43
2019-05-13T04:12:15.393Z,1.23
2019-05-13T04:17:17.704Z,1.53
2019-05-13T04:22:22.748Z,2.00
2019-05-13T04:27:24.150Z,1.20
2019-05-13T04:32:28.977Z,1.97
2019-05-13T04:37:32.836Z,1.77
2019-05-13T04:42:35.828Z,2.07
2019-05-13T04:47:37.988Z,1.80
2019-05-13T04:52:42.340Z,1.57
2019-05-13T04:57:45.325Z,1.70
2019-05-13T05:03:13.625Z,3.17
2019-05-13T05:08:32.806Z,4.03
2019-05-13T05:19:23.262Z,2.07
2019-05-13T05:24:46.091Z,1.93
2019-05-13T05:30:13.687Z,2.77
2019-05-13T05:35:42.775Z,2.17
2019-05-13T05:40:47.660Z,2.63
2019-05-13T05:45:51.873Z,2.33
2019-05-13T05:50:55.392Z,2.20
2019-05-13T05:55:59.426Z,2.60
2019-05-13T06:01:02.898Z,2.37
2019-05-13T06:06:05.931Z,2.10
2019-05-13T06:11:08.443Z,2.10
2019-05-13T06:16:12.337Z,2.27
2019-05-13T06:21:14.631Z,2.07
2019-05-13T06:26:16.979Z,1.83
2019-05-13T06:31:21.386Z,2.40
2019-05-13T06:36:23.208Z,2.33
2019-05-13T06:41:25.220Z,2.27
2019-05-13T06:46:27.267Z,3.00
2019-05-13T06:51:31.393Z,2.10
2019-05-13T06:56:33.680Z,1.93
2019-05-13T07:01:37.739Z,2.30
2019-05-13T07:06:41.892Z,3.10
2019-05-13T07:11:44.296Z,3.00
2019-05-13T07:16:46.270Z,5.57
2019-05-13T07:21:48.486Z,2.50
2019-05-13T07:26:52.366Z,2.77
2019-05-13T07:31:54.634Z,2.03
2019-05-13T07:36:57.032Z,2.67
2019-05-13T07:42:04.346Z,2.87
2019-05-13T07:47:03.951Z,2.57
2019-05-13T07:52:06.302Z,3.03
2019-05-13T07:57:08.917Z,1.77
2019-05-13T08:02:12.440Z,2.57
2019-05-13T08:07:14.667Z,2.23
2019-05-13T08:12:16.938Z,2.20
2019-05-13T08:17:22.498Z,1.83
2019-05-13T08:22:24.252Z,2.57
2019-05-13T08:27:30.674Z,2.00
2019-05-13T08:32:31.477Z,1.43
2019-05-13T08:37:33.935Z,1.20
2019-05-13T08:42:36.107Z,1.87
2019-05-13T08:47:38.360Z,1.73
2019-05-13T08:52:42.264Z,1.30
2019-05-13T08:57:44.973Z,1.40
2019-05-13T09:02:47.087Z,1.13
2019-05-13T09:07:49.190Z,1.97
2019-05-13T09:12:52.221Z,1.20
2019-05-13T09:17:54.335Z,0.70
2019-05-13T09:22:57.448Z,1.53
2019-05-13T09:28:02.600Z,1.80
2019-05-13T09:33:04.316Z,1.63
2019-05-13T09:38:06.712Z,1.10
2019-05-13T09:43:11.435Z,1.93
2019-05-13T09:48:13.015Z,1.17
2019-05-13T09:53:16.288Z,1.80
2019-05-13T09:58:18.423Z,2.30
2019-05-13T10:03:26.555Z,2.00
2019-05-13T10:08:24.637Z,2.10
2019-05-13T10:13:26.660Z,1.43
2019-05-13T10:18:28.937Z,1.30
2019-05-13T10:23:32.945Z,1.90
2019-05-13T10:28:35.836Z,1.90
2019-05-13T10:33:38.391Z,2.07
2019-05-13T10:38:41.452Z,1.77
2019-05-13T10:43:44.987Z,1.17
2019-05-13T10:48:47.125Z,1.07
2019-05-13T10:53:49.215Z,1.20
2019-05-13T10:58:53.463Z,1.63
2019-05-13T11:03:56.063Z,1.70
2019-05-13T11:08:58.167Z,1.80
2019-05-13T11:14:10.193Z,1.60
2019-05-13T11:19:04.304Z,1.60
2019-05-13T11:24:06.545Z,1.40
2019-05-13T11:29:09.088Z,1.07
2019-05-13T11:34:11.220Z,0.90
2019-05-13T11:39:13.418Z,1.07
2019-05-13T11:44:16.888Z,0.93
2019-05-13T11:49:19.315Z,0.80
2019-05-13T11:54:22.334Z,1.00
2019-05-13T11:59:24.648Z,1.07
2019-05-13T12:04:26.808Z,0.70
2019-05-13T12:09:29.025Z,0.50
2019-05-13T12:14:44.195Z,0.70
2019-05-13T12:19:35.030Z,0.80
2019-05-13T12:24:37.181Z,0.70
2019-05-13T12:29:42.747Z,0.60
2019-05-13T12:34:45.948Z,0.70
2019-05-13T12:45:03.998Z,0.80
2019-05-13T12:49:52.663Z,0.80
2019-05-13T12:54:54.752Z,0.50
2019-05-13T12:59:56.855Z,0.60
2019-05-13T13:05:10.593Z,0.50
2019-05-13T13:10:03.555Z,0.40
2019-05-13T13:15:31.785Z,0.50
2019-05-13T13:20:15.138Z,0.40
2019-05-13T13:25:15.414Z,1.00
2019-05-13T13:30:17.880Z,0.70
2019-05-13T13:35:21.836Z,0.60
2019-05-13T13:40:29.394Z,0.60
2019-05-13T13:45:28.444Z,0.80
2019-05-13T13:50:33.428Z,0.80
2019-05-13T13:55:34.657Z,0.60
2019-05-13T14:00:47.255Z,0.50
2019-05-13T14:05:42.820Z,0.70
2019-05-13T14:10:45.195Z,0.73
2019-05-13T14:15:47.196Z,0.63
2019-05-13T14:20:49.497Z,0.50
2019-05-13T14:25:52.957Z,0.70
2019-05-13T14:30:55.323Z,0.67
2019-05-13T14:35:57.419Z,0.60
2019-05-13T14:41:01.605Z,0.80
2019-05-13T14:46:03.880Z,0.50
2019-05-13T14:51:07.363Z,0.50
2019-05-13T14:56:09.542Z,0.60
2019-05-13T15:01:34.015Z,0.70
2019-05-13T15:06:16.001Z,0.50
2019-05-13T15:11:18.006Z,0.50
2019-05-13T15:16:22.392Z,0.60
2019-05-13T15:21:24.290Z,0.40
2019-05-13T15:26:26.498Z,0.40
2019-05-13T15:31:28.629Z,0.53
2019-05-13T15:36:33.508Z,0.50
2019-05-13T15:41:35.637Z,0.50
2019-05-13T15:46:38.057Z,0.60
2019-05-13T15:51:42.204Z,0.40
2019-05-13T15:56:46.383Z,0.43
2019-05-13T16:01:48.456Z,0.50
2019-05-13T16:06:52.151Z,0.77
2019-05-13T16:11:54.561Z,0.40
2019-05-13T16:16:56.573Z,0.57
2019-05-13T16:22:01.205Z,0.60
2019-05-13T16:27:02.859Z,0.60
2019-05-13T16:32:05.379Z,0.60
2019-05-13T16:37:07.603Z,0.50
2019-05-13T16:42:11.666Z,0.60
2019-05-13T16:47:14.230Z,0.70
2019-05-13T16:52:16.315Z,0.67
2019-05-13T16:57:18.502Z,0.60
2019-05-13T17:02:20.655Z,0.70
2019-05-13T17:07:22.649Z,0.60
2019-05-13T17:12:24.736Z,0.57
2019-05-13T17:17:27.048Z,0.50
2019-05-13T17:22:31.462Z,0.70
2019-05-13T17:27:33.146Z,0.70
2019-05-13T17:32:35.362Z,0.70
2019-05-13T17:37:37.306Z,0.70
2019-05-13T17:42:41.411Z,0.80
2019-05-13T17:47:43.324Z,0.67
2019-05-13T17:52:45.325Z,0.70
2019-05-13T22:53:12.584Z,0.70
2019-05-13T22:58:15.938Z,0.80
2019-05-13T23:03:18.192Z,0.83
2019-05-13T23:08:21.745Z,1.00
2019-05-13T23:13:24.195Z,0.80
2019-05-13T23:18:27.334Z,1.00
2019-05-13T23:23:30.215Z,1.10
2019-05-13T23:28:32.467Z,0.90
2019-05-13T23:33:34.621Z,1.03
2019-05-13T23:38:36.750Z,0.80
2019-05-13T23:43:40.435Z,0.83
2019-05-13T23:48:42.554Z,0.87
2019-05-13T23:53:44.849Z,0.93
2019-05-13T23:58:47.018Z,0.90
